Time;durP1;ratioP1;P1;durP2;ratioP2;P2;SDS_P1;SDS_P2;PMS_P1;PMS_P2;Temp;Humidity;BMP_temperature;BMP_pressure;BME280_temperature;BME280_humidity;BME280_pressure;Samples;Min_cycle;Max_cycle;Signal;HPM_P1;HPM_P2
2021/06/02 00:02:48;;;;;;;2.00;1.40;;;19.60;47.20;;;;;;5072646;28;20612;-80
2021/06/02 00:05:33;;;;;;;2.63;1.30;;;19.50;47.40;;;;;;5072506;28;20586;-80
2021/06/02 00:07:59;;;;;;;3.00;1.70;;;19.40;47.30;;;;;;5071974;28;20554;-80
2021/06/02 00:10:25;;;;;;;3.30;1.83;;;19.40;47.60;;;;;;5072295;28;20217;-80
2021/06/02 00:12:52;;;;;;;1.87;1.67;;;19.30;47.80;;;;;;5072514;28;20578;-79
2021/06/02 00:15:19;;;;;;;2.00;1.70;;;19.30;48.00;;;;;;5072077;28;20948;-79
2021/06/02 00:17:44;;;;;;;2.40;1.70;;;19.20;48.10;;;;;;5087630;28;20574;-79
2021/06/02 00:20:13;;;;;;;3.33;1.70;;;19.20;48.40;;;;;;5071968;28;20567;-79
2021/06/02 00:22:39;;;;;;;2.33;1.70;;;19.10;48.40;;;;;;5074587;28;20184;-79
2021/06/02 00:25:06;;;;;;;2.83;1.70;;;19.10;48.60;;;;;;5072240;28;20686;-79
2021/06/02 00:27:33;;;;;;;2.90;1.80;;;19.00;48.70;;;;;;5071660;28;20593;-79
2021/06/02 00:30:07;;;;;;;2.10;1.47;;;19.00;48.80;;;;;;5071009;28;20756;-79
2021/06/02 00:32:33;;;;;;;4.83;2.00;;;18.90;49.20;;;;;;5070882;28;20926;-79
2021/06/02 00:35:02;;;;;;;2.03;1.83;;;18.90;49.10;;;;;;5070413;28;20979;-78
2021/06/02 00:37:29;;;;;;;1.60;1.40;;;18.80;49.30;;;;;;5034525;28;20579;-79
2021/06/02 00:39:56;;;;;;;2.40;2.00;;;18.80;49.30;;;;;;5065375;28;20674;-79
2021/06/02 00:42:29;;;;;;;2.23;1.30;;;18.80;49.50;;;;;;5069918;28;21202;-78
2021/06/02 00:44:55;;;;;;;3.00;1.83;;;18.80;49.60;;;;;;5071520;28;21088;-78
2021/06/02 00:47:23;;;;;;;5.30;2.67;;;18.70;49.50;;;;;;5071042;28;20593;-78
2021/06/02 00:49:50;;;;;;;6.93;1.50;;;18.60;49.80;;;;;;5070097;28;20636;-79
2021/06/02 00:52:16;;;;;;;2.87;1.43;;;18.60;49.70;;;;;;5071654;28;20594;-78
2021/06/02 00:54:42;;;;;;;2.37;1.67;;;18.60;49.80;;;;;;5071306;28;20614;-78
2021/06/02 00:57:10;;;;;;;2.30;1.40;;;18.60;49.80;;;;;;5069878;28;20563;-78
2021/06/02 00:59:55;;;;;;;2.17;1.50;;;18.60;50.10;;;;;;5073287;28;20175;-79
2021/06/02 01:02:22;;;;;;;2.37;1.43;;;18.60;49.90;;;;;;5071446;28;20574;-79
2021/06/02 01:04:50;;;;;;;2.93;2.00;;;18.60;50.10;;;;;;5053625;28;20598;-79
2021/06/02 01:07:16;;;;;;;2.10;1.60;;;18.50;50.20;;;;;;5071374;28;20961;-79
2021/06/02 01:09:57;;;;;;;2.20;1.40;;;18.50;50.00;;;;;;5071810;28;20724;-79
2021/06/02 01:12:26;;;;;;;3.33;1.30;;;18.50;50.20;;;;;;5075574;28;20649;-79
2021/06/02 01:14:54;;;;;;;5.80;1.50;;;18.50;50.20;;;;;;5075580;28;20587;-78
2021/06/02 01:17:22;;;;;;;3.30;1.60;;;18.50;50.30;;;;;;5075359;28;20569;-79
2021/06/02 01:19:49;;;;;;;2.07;1.33;;;18.50;50.20;;;;;;5075581;28;20616;-78
2021/06/02 01:22:16;;;;;;;2.40;1.50;;;18.50;50.00;;;;;;5057525;28;21150;-77
2021/06/02 01:24:42;;;;;;;2.63;1.23;;;18.50;50.10;;;;;;5075459;28;21204;-78
2021/06/02 01:27:10;;;;;;;1.70;1.43;;;18.50;50.00;;;;;;5074914;28;20657;-78
2021/06/02 01:29:38;;;;;;;1.90;1.37;;;18.50;50.10;;;;;;5075103;28;20621;-77
2021/06/02 01:32:42;;;;;;;3.00;1.50;;;18.50;50.10;;;;;;5075158;28;20566;-78
2021/06/02 01:35:35;;;;;;;2.53;1.60;;;18.50;50.50;;;;;;5053789;28;20598;-78
2021/06/02 01:38:15;;;;;;;2.77;1.80;;;18.50;50.40;;;;;;5074830;28;20594;-78
2021/06/02 01:40:50;;;;;;;2.00;1.77;;;18.50;50.10;;;;;;5073793;28;20574;-78
2021/06/02 01:43:49;;;;;;;2.03;1.30;;;18.50;50.40;;;;;;5075105;28;20569;-78
2021/06/02 01:46:53;;;;;;;2.20;1.40;;;18.50;50.80;;;;;;5074699;28;20597;-78
2021/06/02 01:50:01;;;;;;;1.80;1.70;;;18.40;50.90;;;;;;5073473;28;20900;-78
2021/06/02 01:52:54;;;;;;;3.37;1.60;;;18.40;50.80;;;;;;5073665;28;20579;-78
2021/06/02 01:55:33;;;;;;;2.10;1.70;;;18.40;50.70;;;;;;5074455;28;20606;-78
2021/06/02 01:58:36;;;;;;;3.00;1.57;;;18.40;50.80;;;;;;5074429;28;21137;-79
2021/06/02 02:01:21;;;;;;;1.80;1.53;;;18.30;51.10;;;;;;5074631;28;20573;-78
2021/06/02 02:04:10;;;;;;;2.40;1.80;;;18.30;50.90;;;;;;5074618;28;20570;-79
2021/06/02 02:07:07;;;;;;;2.40;1.90;;;18.30;51.20;;;;;;5072967;28;20661;-79
2021/06/02 02:10:10;;;;;;;2.23;1.70;;;18.30;51.40;;;;;;5074967;28;20622;-79
2021/06/02 02:12:35;;;;;;;2.23;1.67;;;18.20;51.80;;;;;;5074464;28;20559;-79
2021/06/02 02:15:18;;;;;;;2.00;1.47;;;18.20;51.30;;;;;;5074481;28;21174;-79
2021/06/02 02:17:54;;;;;;;3.10;1.93;;;18.20;51.80;;;;;;5073923;28;20168;-79
2021/06/02 02:20:29;;;;;;;1.67;1.43;;;18.20;51.90;;;;;;5073312;28;20925;-79
2021/06/02 02:23:16;;;;;;;2.13;1.57;;;18.10;52.50;;;;;;5074244;28;21169;-79
2021/06/02 02:26:07;;;;;;;1.80;1.50;;;18.10;52.30;;;;;;5074261;28;20598;-79
2021/06/02 02:29:06;;;;;;;2.53;1.53;;;18.10;52.10;;;;;;5074003;28;20572;-79
2021/06/02 02:31:47;;;;;;;2.80;1.67;;;18.10;52.80;;;;;;5074304;28;20582;-79
2021/06/02 02:34:33;;;;;;;2.23;2.00;;;18.10;52.40;;;;;;5074056;28;21238;-79
2021/06/02 02:37:22;;;;;;;1.70;1.30;;;18.00;52.20;;;;;;5074786;28;20913;-78
2021/06/02 02:40:04;;;;;;;2.23;1.93;;;18.00;52.90;;;;;;5056570;28;20586;-79
2021/06/02 02:42:40;;;;;;;1.90;1.67;;;18.00;53.80;;;;;;5056377;28;20921;-80
2021/06/02 02:45:25;;;;;;;2.80;1.90;;;18.00;53.70;;;;;;5073956;28;21002;-79
2021/06/02 02:48:02;;;;;;;2.00;1.60;;;17.90;53.20;;;;;;5073705;28;20570;-80
2021/06/02 02:50:51;;;;;;;3.03;1.53;;;17.90;53.70;;;;;;5098545;22;20654;-80
2021/06/02 02:53:35;;;;;;;2.30;1.53;;;17.90;53.60;;;;;;5089285;28;20724;-80
2021/06/02 02:56:04;;;;;;;2.67;1.50;;;17.80;53.40;;;;;;5082020;28;20627;-80
2021/06/02 02:58:45;;;;;;;2.30;1.50;;;17.80;53.00;;;;;;5076671;28;20620;-80
2021/06/02 03:01:46;;;;;;;2.10;1.50;;;17.80;53.90;;;;;;5083065;28;20621;-80
2021/06/02 03:04:23;;;;;;;3.10;1.80;;;17.80;53.90;;;;;;5080655;28;20593;-80
2021/06/02 03:06:55;;;;;;;2.13;1.53;;;17.70;53.80;;;;;;5093877;28;20909;-80
2021/06/02 03:09:45;;;;;;;2.75;1.90;;;17.70;53.60;;;;;;5092543;28;21170;-79
2021/06/02 03:12:30;;;;;;;1.50;1.35;;;17.70;53.80;;;;;;5092697;28;20530;-79
2021/06/02 03:15:06;;;;;;;1.97;1.40;;;17.70;53.80;;;;;;5093732;28;20167;-79
2021/06/02 03:17:52;;;;;;;1.73;1.60;;;17.70;53.70;;;;;;5092225;28;20565;-79
2021/06/02 03:20:23;;;;;;;3.33;1.57;;;17.60;54.10;;;;;;5093358;28;20711;-79
2021/06/02 03:23:01;;;;;;;2.57;1.53;;;17.60;53.90;;;;;;5092341;28;20657;-79
2021/06/02 03:25:40;;;;;;;2.40;2.17;;;17.60;53.90;;;;;;5093496;28;20558;-79
2021/06/02 03:28:17;;;;;;;2.87;1.93;;;17.50;54.10;;;;;;5093045;28;20562;-79
2021/06/02 03:30:50;;;;;;;3.63;2.05;;;17.50;54.90;;;;;;5092122;28;20609;-79
2021/06/02 03:33:41;;;;;;;2.13;1.87;;;17.40;54.90;;;;;;5091813;28;20600;-80
2021/06/02 03:36:11;;;;;;;2.77;2.00;;;17.40;55.20;;;;;;5093259;28;20653;-79
2021/06/02 03:38:56;;;;;;;2.17;1.73;;;17.30;54.90;;;;;;5091831;28;20574;-79
2021/06/02 03:41:34;;;;;;;6.90;2.00;;;17.20;55.20;;;;;;5093616;28;20203;-80
2021/06/02 03:44:20;;;;;;;2.30;2.10;;;17.20;56.40;;;;;;5092430;28;20704;-79
2021/06/02 03:47:03;;;;;;;2.13;1.83;;;17.20;55.70;;;;;;5050614;28;20667;-80
2021/06/02 03:49:34;;;;;;;2.13;1.60;;;17.10;55.60;;;;;;5092686;28;20577;-79
2021/06/02 03:52:04;;;;;;;2.55;1.55;;;17.10;55.60;;;;;;5093335;28;20621;-80
2021/06/02 03:54:44;;;;;;;2.00;1.80;;;17.10;55.50;;;;;;5092508;28;20209;-79
2021/06/02 03:57:13;;;;;;;2.47;1.60;;;17.10;55.70;;;;;;5092446;28;20557;-80
2021/06/02 03:59:49;;;;;;;2.10;1.60;;;17.10;55.60;;;;;;5091720;28;20705;-80
2021/06/02 04:02:30;;;;;;;3.30;2.30;;;17.10;56.00;;;;;;5091529;28;20179;-80
2021/06/02 04:05:14;;;;;;;3.13;2.60;;;17.10;56.30;;;;;;5074459;28;20186;-81
2021/06/02 04:08:05;;;;;;;2.30;2.10;;;17.00;56.40;;;;;;5078515;28;21213;-80
2021/06/02 04:11:02;;;;;;;2.22;2.00;;;17.00;56.70;;;;;;5092319;28;21017;-80
2021/06/02 04:13:54;;;;;;;2.13;1.92;;;17.00;56.40;;;;;;5070910;28;20172;-80
2021/06/02 04:16:32;;;;;;;2.60;1.65;;;17.00;56.60;;;;;;5070636;28;20675;-80
2021/06/02 04:19:05;;;;;;;3.45;2.05;;;17.00;56.70;;;;;;5070938;28;20172;-80
2021/06/02 04:21:33;;;;;;;2.50;1.87;;;17.10;56.90;;;;;;5071745;28;20208;-80
2021/06/02 04:24:03;;;;;;;4.30;1.97;;;17.10;56.90;;;;;;5072199;28;20567;-80
2021/06/02 04:26:33;;;;;;;2.50;2.30;;;17.10;57.00;;;;;;5071220;28;21007;-80
2021/06/02 04:29:01;;;;;;;4.07;2.13;;;17.20;57.30;;;;;;5070777;28;21008;-80
2021/06/02 04:31:29;;;;;;;2.27;2.07;;;17.20;57.30;;;;;;5070714;28;20606;-80
2021/06/02 04:34:00;;;;;;;4.43;2.00;;;17.30;57.60;;;;;;5070819;28;20571;-80
2021/06/02 04:36:28;;;;;;;3.30;2.33;;;17.30;57.50;;;;;;5070363;28;20570;-80
2021/06/02 04:38:56;;;;;;;2.13;1.60;;;17.40;57.40;;;;;;5071746;28;20593;-81
2021/06/02 04:41:27;;;;;;;5.57;2.50;;;17.50;57.70;;;;;;5070759;28;20630;-80
2021/06/02 04:43:54;;;;;;;2.43;2.10;;;17.50;57.80;;;;;;5071051;28;20567;-80
2021/06/02 04:46:21;;;;;;;2.60;1.83;;;17.60;57.60;;;;;;5070441;28;20914;-80
2021/06/02 04:48:50;;;;;;;3.20;2.43;;;17.70;57.70;;;;;;5071730;28;20654;-80
2021/06/02 04:52:01;;;;;;;3.10;1.87;;;17.80;58.40;;;;;;5071407;28;20602;-81
2021/06/02 04:55:00;;;;;;;2.83;2.23;;;18.00;58.60;;;;;;5052272;28;20625;-81
2021/06/02 04:57:51;;;;;;;3.57;1.60;;;18.40;58.70;;;;;;5071253;28;20658;-81
2021/06/02 05:00:57;;;;;;;2.80;1.73;;;18.80;58.70;;;;;;5071184;28;20614;-81
2021/06/02 05:03:53;;;;;;;6.00;2.50;;;19.30;59.00;;;;;;5044557;28;21167;-81
2021/06/02 05:06:55;;;;;;;4.03;2.80;;;19.90;58.80;;;;;;5089291;28;20681;-81
2021/06/02 05:09:24;;;;;;;2.20;1.80;;;20.30;57.90;;;;;;5087503;28;20570;-82
2021/06/02 05:12:16;;;;;;;2.40;1.60;;;20.80;57.80;;;;;;5083048;28;20593;-81
2021/06/02 05:15:19;;;;;;;3.10;1.90;;;21.00;57.00;;;;;;5091838;28;20550;-82
2021/06/02 05:17:56;;;;;;;4.07;1.50;;;21.10;55.70;;;;;;5090030;28;20566;-83
2021/06/02 05:24:21;;;;;;;2.10;1.50;;;21.30;55.20;;;;;;5091492;28;20655;-83
2021/06/02 05:26:58;;;;;;;2.20;1.30;;;21.40;55.00;;;;;;5091095;28;20956;-83
2021/06/02 05:29:57;;;;;;;2.47;1.50;;;21.50;55.10;;;;;;5073577;28;20557;-83
2021/06/02 05:32:47;;;;;;;2.27;1.30;;;21.70;55.10;;;;;;5091172;28;20684;-81
2021/06/02 05:35:31;;;;;;;3.97;1.23;;;21.90;54.60;;;;;;5090265;28;20565;-81
2021/06/02 05:38:00;;;;;;;3.60;1.63;;;22.00;54.50;;;;;;5090082;28;21116;-81
2021/06/02 05:41:08;;;;;;;4.63;1.60;;;22.10;54.20;;;;;;5100204;28;20628;-81
2021/06/02 05:44:07;;;;;;;2.53;1.60;;;22.00;53.00;;;;;;5079629;28;20581;-82
2021/06/02 05:46:47;;;;;;;5.23;2.70;;;22.10;53.40;;;;;;5090113;28;20660;-82
2021/06/02 05:50:05;;;;;;;3.30;1.50;;;22.20;53.20;;;;;;5073700;28;20893;-81
2021/06/02 05:52:42;;;;;;;2.37;2.07;;;22.40;53.00;;;;;;5047753;28;20603;-82
2021/06/02 05:55:34;;;;;;;2.43;1.73;;;23.30;54.20;;;;;;5072633;28;20562;-82
2021/06/02 05:58:14;;;;;;;2.00;1.30;;;24.10;54.60;;;;;;5074950;28;20593;-83
2021/06/02 06:00:49;;;;;;;2.20;1.20;;;25.00;54.30;;;;;;5074140;28;20656;-81
2021/06/02 06:03:41;;;;;;;6.90;1.50;;;25.90;53.30;;;;;;5075562;28;20631;-81
2021/06/02 06:06:26;;;;;;;2.10;1.20;;;26.60;52.50;;;;;;5075360;28;20600;-81
2021/06/02 06:09:28;;;;;;;4.37;1.30;;;27.40;51.90;;;;;;5074468;28;20720;-81
2021/06/02 06:12:13;;;;;;;2.77;1.70;;;28.00;49.80;;;;;;5076825;28;20606;-81
2021/06/02 06:14:58;;;;;;;2.07;1.30;;;28.50;49.30;;;;;;5034705;28;20601;-80
2021/06/02 06:17:30;;;;;;;2.53;1.50;;;29.40;49.20;;;;;;5080942;28;20621;-82
2021/06/02 06:20:33;;;;;;;10.10;1.77;;;29.90;47.00;;;;;;5077726;28;20644;-82
2021/06/02 06:23:13;;;;;;;2.23;1.30;;;30.10;44.00;;;;;;5090859;28;20585;-83
2021/06/02 06:26:00;;;;;;;2.67;1.77;;;30.20;45.10;;;;;;5083605;28;20569;-82
2021/06/02 06:28:42;;;;;;;4.70;1.83;;;30.20;43.20;;;;;;5089404;28;20647;-83
2021/06/02 06:31:21;;;;;;;3.87;2.63;;;30.40;43.90;;;;;;5072421;28;20613;-83
2021/06/02 06:33:49;;;;;;;4.97;1.43;;;30.60;44.20;;;;;;5071221;28;20681;-83
2021/06/02 06:36:22;;;;;;;3.60;1.13;;;31.10;44.60;;;;;;5080852;28;20681;-82
2021/06/02 06:38:55;;;;;;;2.93;1.30;;;31.50;44.40;;;;;;5094593;28;20582;-83
2021/06/02 06:41:24;;;;;;;2.83;1.47;;;32.10;44.60;;;;;;5062471;28;20627;-83
2021/06/02 06:43:56;;;;;;;2.37;1.20;;;32.50;43.90;;;;;;5057482;28;20671;-84
2021/06/02 06:46:24;;;;;;;2.60;1.23;;;33.10;43.70;;;;;;5055501;28;20569;-80
2021/06/02 06:48:51;;;;;;;2.07;1.77;;;33.50;42.80;;;;;;5053564;28;20574;-80
2021/06/02 06:51:20;;;;;;;1.70;1.30;;;33.70;42.10;;;;;;5053774;28;20613;-80
2021/06/02 06:53:48;;;;;;;2.20;1.27;;;33.90;41.80;;;;;;5057084;28;20572;-80
2021/06/02 06:56:17;;;;;;;2.77;1.77;;;34.30;41.20;;;;;;5053735;28;20620;-80
2021/06/02 06:58:45;;;;;;;2.47;1.40;;;34.30;40.40;;;;;;5053337;28;20977;-80
2021/06/02 07:01:15;;;;;;;3.97;1.87;;;34.70;40.80;;;;;;5052037;28;20653;-78
2021/06/02 07:03:42;;;;;;;2.70;1.63;;;35.20;40.60;;;;;;5052104;28;20682;-79
2021/06/02 07:06:09;;;;;;;1.70;1.20;;;35.70;40.40;;;;;;5052163;28;20888;-80
2021/06/02 07:08:35;;;;;;;4.60;1.90;;;36.00;40.10;;;;;;5051134;28;20621;-79
2021/06/02 07:11:02;;;;;;;8.77;1.97;;;36.50;39.40;;;;;;5053448;28;20614;-80
2021/06/02 07:13:30;;;;;;;6.03;1.57;;;36.90;39.20;;;;;;5052187;28;20577;-80
2021/06/02 07:16:00;;;;;;;3.37;1.17;;;37.40;38.80;;;;;;5053353;28;20564;-78
2021/06/02 07:18:27;;;;;;;1.80;1.40;;;37.70;37.90;;;;;;5052895;28;20588;-78
2021/06/02 07:20:54;;;;;;;5.87;1.70;;;38.00;37.40;;;;;;5051905;28;20625;-79
2021/06/02 07:23:20;;;;;;;1.93;1.63;;;38.00;36.80;;;;;;5053640;28;20564;-79
2021/06/02 07:25:46;;;;;;;2.23;1.20;;;37.70;36.20;;;;;;5052233;28;20621;-78
2021/06/02 07:28:13;;;;;;;3.20;1.40;;;37.70;35.70;;;;;;5051413;28;20569;-78
2021/06/02 07:30:39;;;;;;;5.83;1.67;;;37.50;35.60;;;;;;5056859;28;20603;-79
2021/06/02 07:33:06;;;;;;;2.90;1.60;;;37.40;35.40;;;;;;5052790;28;20599;-78
2021/06/02 07:35:32;;;;;;;3.03;1.50;;;37.10;35.00;;;;;;5052846;28;20670;-79
2021/06/02 07:37:58;;;;;;;3.57;1.30;;;36.80;34.70;;;;;;5052295;28;20607;-79
2021/06/02 07:40:24;;;;;;;3.87;1.20;;;37.00;35.40;;;;;;5051416;28;20677;-79
2021/06/02 07:42:50;;;;;;;2.20;1.63;;;37.40;36.00;;;;;;5051442;28;20165;-80
2021/06/02 07:45:16;;;;;;;3.70;2.10;;;37.80;36.60;;;;;;5052916;28;20169;-78
2021/06/02 07:47:43;;;;;;;4.00;1.30;;;38.30;35.30;;;;;;5051126;28;20596;-78
2021/06/02 07:50:09;;;;;;;3.20;1.20;;;38.30;34.40;;;;;;5052472;28;20575;-78
2021/06/02 07:52:35;;;;;;;2.07;1.43;;;38.30;33.90;;;;;;5034656;28;20944;-77
2021/06/02 07:55:01;;;;;;;3.30;1.00;;;38.30;33.40;;;;;;5052317;28;20578;-78
2021/06/02 07:57:27;;;;;;;4.30;1.50;;;38.10;33.30;;;;;;5051891;28;20180;-78
2021/06/02 07:59:52;;;;;;;2.67;1.30;;;37.80;32.90;;;;;;5052091;28;20625;-78
2021/06/02 08:02:18;;;;;;;2.53;1.40;;;37.40;32.30;;;;;;5052309;28;20189;-78
2021/06/02 08:04:44;;;;;;;2.50;1.40;;;37.20;32.80;;;;;;5052821;28;20188;-78
2021/06/02 08:07:10;;;;;;;1.60;1.20;;;37.20;33.20;;;;;;5040384;28;20173;-78
2021/06/02 08:09:36;;;;;;;3.43;1.67;;;37.50;33.80;;;;;;5052095;28;20165;-78
2021/06/02 08:12:05;;;;;;;2.50;1.30;;;37.90;33.80;;;;;;5052011;28;20673;-78
2021/06/02 08:14:32;;;;;;;2.00;1.20;;;38.40;34.20;;;;;;5052064;28;20583;-78
2021/06/02 08:16:58;;;;;;;2.40;1.37;;;38.70;33.70;;;;;;5055284;28;20957;-78
2021/06/02 08:19:24;;;;;;;1.40;1.10;;;39.10;33.70;;;;;;5080611;28;21269;-77
2021/06/02 08:21:49;;;;;;;1.40;1.17;;;39.60;32.50;;;;;;5081090;28;20240;-78
2021/06/02 08:24:15;;;;;;;1.50;0.90;;;39.70;33.00;;;;;;5090670;28;20182;-78
2021/06/02 08:26:42;;;;;;;4.80;0.90;;;40.00;32.50;;;;;;5076924;28;20695;-78
2021/06/02 08:29:08;;;;;;;1.33;0.87;;;40.30;31.70;;;;;;5070501;28;20233;-79
2021/06/02 08:31:34;;;;;;;1.30;0.97;;;40.20;30.90;;;;;;5071897;28;20704;-79
2021/06/02 08:34:01;;;;;;;2.17;1.20;;;40.30;31.20;;;;;;5074983;28;21247;-77
2021/06/02 08:36:27;;;;;;;2.27;1.10;;;40.40;30.10;;;;;;5090443;28;20519;-77
2021/06/02 08:38:53;;;;;;;2.03;1.10;;;40.20;30.20;;;;;;5091854;28;20658;-77
2021/06/02 08:41:20;;;;;;;2.37;1.10;;;40.10;30.10;;;;;;5090595;28;20629;-77
2021/06/02 08:43:47;;;;;;;2.70;1.20;;;40.00;30.00;;;;;;5095015;28;20618;-77
2021/06/02 08:46:15;;;;;;;4.30;1.63;;;39.60;30.10;;;;;;5090754;28;21080;-77
2021/06/02 08:48:45;;;;;;;1.43;0.87;;;39.20;29.90;;;;;;5091464;28;20651;-77
2021/06/02 08:51:10;;;;;;;2.97;1.50;;;39.30;30.80;;;;;;5084664;28;21013;-77
2021/06/02 08:53:37;;;;;;;1.53;1.40;;;39.50;30.60;;;;;;5069812;28;20579;-78
2021/06/02 08:56:04;;;;;;;2.17;1.00;;;39.50;29.90;;;;;;5053398;28;20168;-78
2021/06/02 08:58:30;;;;;;;3.00;1.00;;;39.50;30.70;;;;;;5070931;28;20572;-79
2021/06/02 09:00:56;;;;;;;2.60;1.10;;;39.70;30.20;;;;;;5071091;28;20590;-78
2021/06/02 09:03:22;;;;;;;1.90;1.20;;;39.90;30.20;;;;;;5069838;28;20686;-78
2021/06/02 09:05:48;;;;;;;1.73;1.27;;;39.90;29.80;;;;;;5071094;28;20595;-77
2021/06/02 09:08:15;;;;;;;1.80;1.00;;;39.70;29.80;;;;;;5070618;28;21152;-78
2021/06/02 09:10:44;;;;;;;2.73;1.30;;;40.10;30.40;;;;;;5069599;28;20289;-78
2021/06/02 09:13:19;;;;;;;1.70;1.23;;;40.20;29.70;;;;;;5070842;28;20558;-78
2021/06/02 09:15:50;;;;;;;1.70;1.03;;;39.90;29.40;;;;;;5071262;28;20570;-77
2021/06/02 09:18:22;;;;;;;4.70;1.20;;;39.90;29.70;;;;;;5069455;28;20975;-78
2021/06/02 09:20:53;;;;;;;3.70;1.20;;;40.00;29.30;;;;;;5073292;28;20605;-75
2021/06/02 09:23:35;;;;;;;1.60;1.17;;;40.10;29.30;;;;;;5069440;28;20632;-75
2021/06/02 09:26:11;;;;;;;2.23;1.07;;;39.90;28.60;;;;;;5069504;28;20583;-75
2021/06/02 09:28:57;;;;;;;2.00;1.17;;;39.50;28.80;;;;;;5070310;28;20570;-76
2021/06/02 09:31:35;;;;;;;1.30;0.80;;;39.50;28.70;;;;;;5055403;28;20644;-75
2021/06/02 09:34:17;;;;;;;1.60;0.97;;;39.20;27.90;;;;;;5074875;28;20971;-75
2021/06/02 09:36:56;;;;;;;2.17;0.90;;;38.80;27.80;;;;;;5073217;28;21399;-76
2021/06/02 09:39:22;;;;;;;1.93;1.03;;;38.70;28.10;;;;;;5074651;28;20620;-75
2021/06/02 09:42:02;;;;;;;3.40;1.30;;;38.50;28.10;;;;;;5074795;28;20605;-75
2021/06/02 09:44:30;;;;;;;2.40;1.10;;;38.30;28.20;;;;;;5073360;28;20630;-75
2021/06/02 09:47:09;;;;;;;3.13;1.70;;;38.00;27.60;;;;;;5072945;28;20582;-75
2021/06/02 09:49:56;;;;;;;1.90;1.00;;;37.70;27.80;;;;;;5073132;28;20674;-75
2021/06/02 09:52:47;;;;;;;2.27;0.90;;;37.70;28.30;;;;;;5074301;28;20620;-75
2021/06/02 09:55:18;;;;;;;1.40;1.00;;;37.90;28.30;;;;;;5069271;28;20985;-75
2021/06/02 09:57:46;;;;;;;3.10;1.17;;;38.00;28.20;;;;;;5076503;28;20581;-76
2021/06/02 10:00:14;;;;;;;1.60;1.10;;;38.20;27.90;;;;;;5072481;28;20574;-76
2021/06/02 10:02:41;;;;;;;3.00;1.00;;;38.20;26.70;;;;;;5072400;28;20665;-76
2021/06/02 10:05:11;;;;;;;1.63;0.80;;;37.90;26.50;;;;;;5072159;28;20579;-75
2021/06/02 10:07:47;;;;;;;1.47;1.00;;;37.70;26.80;;;;;;5073895;28;21079;-76
2021/06/02 10:10:17;;;;;;;1.50;0.80;;;37.40;26.20;;;;;;5072451;28;20675;-75
2021/06/02 10:12:59;;;;;;;1.50;0.90;;;37.00;26.60;;;;;;5074078;28;20570;-75
2021/06/02 10:15:30;;;;;;;1.70;1.10;;;36.90;27.10;;;;;;5055497;28;20581;-75
2021/06/02 10:17:57;;;;;;;1.40;1.00;;;36.70;27.00;;;;;;5073766;28;20624;-75
2021/06/02 10:20:22;;;;;;;1.40;0.80;;;36.70;27.50;;;;;;5073724;28;20566;-75
2021/06/02 10:22:54;;;;;;;1.50;1.03;;;36.80;27.90;;;;;;5073941;28;20620;-75
2021/06/02 10:25:21;;;;;;;1.60;0.90;;;37.00;28.10;;;;;;5077880;28;20172;-75
2021/06/02 10:27:49;;;;;;;2.07;1.00;;;37.30;28.30;;;;;;5092298;28;20913;-75
2021/06/02 10:30:15;;;;;;;3.30;1.00;;;37.50;28.10;;;;;;5093560;28;20616;-75
2021/06/02 10:32:41;;;;;;;1.37;1.00;;;37.50;27.80;;;;;;5094092;28;20573;-75
2021/06/02 10:35:07;;;;;;;1.60;1.10;;;37.40;28.00;;;;;;5096311;28;20666;-74
2021/06/02 10:37:39;;;;;;;1.60;0.90;;;37.40;28.30;;;;;;5092316;28;20217;-76
2021/06/02 10:40:10;;;;;;;1.60;0.90;;;37.70;28.30;;;;;;5093527;28;21380;-74
2021/06/02 10:42:54;;;;;;;1.60;0.90;;;37.80;28.30;;;;;;5092445;28;20562;-74
2021/06/02 10:45:29;;;;;;;2.63;1.40;;;37.70;28.10;;;;;;5092565;28;20561;-75
2021/06/02 10:48:00;;;;;;;1.93;0.90;;;37.70;27.80;;;;;;5092555;28;20573;-75
2021/06/02 10:50:29;;;;;;;2.33;1.00;;;37.60;27.90;;;;;;5093108;28;20635;-75
2021/06/02 10:52:55;;;;;;;1.70;0.97;;;37.40;27.50;;;;;;5093590;28;20929;-75
2021/06/02 10:55:43;;;;;;;2.43;1.00;;;37.20;26.70;;;;;;5093487;28;20576;-76
2021/06/02 10:58:15;;;;;;;1.97;0.90;;;36.80;27.00;;;;;;5092604;28;20583;-75
2021/06/02 11:00:41;;;;;;;1.40;0.80;;;36.50;27.20;;;;;;5092637;28;20611;-75
2021/06/02 11:03:28;;;;;;;1.90;1.20;;;36.30;27.30;;;;;;5093199;28;20574;-74
2021/06/02 11:06:06;;;;;;;2.63;2.10;;;36.00;27.20;;;;;;5091480;28;20246;-74
2021/06/02 11:08:50;;;;;;;1.60;1.20;;;36.00;27.90;;;;;;5092965;28;20611;-74
2021/06/02 11:11:25;;;;;;;2.00;1.17;;;36.20;28.70;;;;;;5093237;28;20641;-75
2021/06/02 11:16:49;;;;;;;1.70;1.00;;;36.50;28.20;;;;;;5094457;28;20558;-74
2021/06/02 11:19:16;;;;;;;2.87;1.10;;;36.50;27.80;;;;;;5094831;28;20984;-75
2021/06/02 11:21:57;;;;;;;1.50;0.90;;;36.50;27.70;;;;;;5092157;28;20605;-76
2021/06/02 11:24:36;;;;;;;1.90;1.00;;;36.40;27.90;;;;;;5091302;28;20581;-75
2021/06/02 11:27:13;;;;;;;4.73;1.50;;;36.20;27.70;;;;;;5054416;28;20587;-77
2021/06/02 11:29:51;;;;;;;2.73;1.20;;;35.90;27.50;;;;;;5071004;28;21126;-75
2021/06/02 11:32:28;;;;;;;2.87;1.60;;;35.70;27.80;;;;;;5072371;28;20599;-75
2021/06/02 11:34:56;;;;;;;4.47;1.73;;;35.50;28.00;;;;;;5071374;28;20577;-76
2021/06/02 11:37:33;;;;;;;2.73;1.13;;;35.40;28.00;;;;;;5072099;28;20566;-76
2021/06/02 11:40:08;;;;;;;1.57;1.03;;;35.20;27.90;;;;;;5071303;28;20617;-76
2021/06/02 11:42:39;;;;;;;2.53;1.33;;;35.20;28.20;;;;;;5071067;28;20675;-76
2021/06/02 11:45:08;;;;;;;2.17;1.10;;;35.10;27.90;;;;;;5071549;28;20568;-76
2021/06/02 11:47:35;;;;;;;1.80;1.10;;;35.00;27.90;;;;;;5074531;28;20564;-76
2021/06/02 11:50:08;;;;;;;3.73;1.53;;;34.80;27.80;;;;;;5071011;28;20624;-76
2021/06/02 11:52:34;;;;;;;2.00;1.20;;;34.60;27.90;;;;;;5071804;28;20563;-75
2021/06/02 11:55:12;;;;;;;1.70;1.17;;;34.40;27.80;;;;;;5069998;28;20552;-76
2021/06/02 11:57:42;;;;;;;1.50;1.00;;;34.20;28.00;;;;;;5069826;28;20617;-75
2021/06/02 12:00:14;;;;;;;2.07;0.90;;;34.20;28.20;;;;;;5071944;28;20562;-76
2021/06/02 12:02:41;;;;;;;1.50;0.90;;;34.20;28.10;;;;;;5070420;28;20570;-74
2021/06/02 12:05:25;;;;;;;2.47;1.10;;;34.20;27.80;;;;;;5071914;28;20562;-74
2021/06/02 12:07:59;;;;;;;2.13;0.80;;;34.10;27.90;;;;;;5071394;28;20626;-74
2021/06/02 12:10:28;;;;;;;1.70;1.00;;;34.00;27.80;;;;;;5071717;28;20628;-74
2021/06/02 12:12:55;;;;;;;2.23;0.93;;;33.90;27.80;;;;;;5071462;28;20626;-75
2021/06/02 12:15:21;;;;;;;2.17;0.80;;;33.60;27.60;;;;;;5071674;28;20572;-75
2021/06/02 12:17:49;;;;;;;1.50;1.17;;;33.50;27.60;;;;;;5070049;28;20555;-75
2021/06/02 12:20:18;;;;;;;2.17;0.90;;;33.20;27.80;;;;;;5071529;28;20567;-75
2021/06/02 12:22:44;;;;;;;3.67;1.80;;;33.00;27.70;;;;;;5071504;28;20638;-75
2021/06/02 12:25:18;;;;;;;2.53;1.40;;;32.70;28.10;;;;;;5076937;28;20635;-75
2021/06/02 12:27:49;;;;;;;3.30;3.00;;;32.40;28.20;;;;;;5073170;28;20581;-75
2021/06/02 12:30:24;;;;;;;5.63;1.00;;;32.20;28.70;;;;;;5090507;28;20612;-75
2021/06/02 12:33:00;;;;;;;2.10;1.10;;;32.00;27.70;;;;;;5091739;28;20693;-75
2021/06/02 12:35:48;;;;;;;1.73;1.20;;;31.90;28.10;;;;;;5090706;28;21105;-76
2021/06/02 12:38:20;;;;;;;1.67;1.00;;;31.70;28.50;;;;;;5073755;28;20586;-77
2021/06/02 12:40:49;;;;;;;1.50;0.90;;;31.70;28.50;;;;;;5071631;28;20628;-77
2021/06/02 12:43:22;;;;;;;1.90;0.90;;;31.70;28.60;;;;;;5053580;28;20562;-76
2021/06/02 12:45:52;;;;;;;3.50;1.00;;;31.70;28.70;;;;;;5070559;28;20926;-76
2021/06/02 12:48:38;;;;;;;2.50;0.80;;;31.50;28.40;;;;;;5070347;28;20577;-76
2021/06/02 12:51:06;;;;;;;2.70;0.90;;;31.40;28.60;;;;;;5071587;28;20985;-76
2021/06/02 12:53:43;;;;;;;4.30;1.47;;;31.30;28.40;;;;;;5072015;28;20612;-75
2021/06/02 12:56:10;;;;;;;2.47;1.20;;;31.10;28.50;;;;;;5072034;28;20563;-76
2021/06/02 12:58:37;;;;;;;1.30;0.80;;;31.00;28.60;;;;;;5070649;28;20628;-75
2021/06/02 13:01:10;;;;;;;1.20;0.80;;;30.80;28.90;;;;;;5074041;28;20586;-76
2021/06/02 13:03:51;;;;;;;2.90;0.90;;;30.70;28.90;;;;;;5074725;28;20577;-75
2021/06/02 13:06:29;;;;;;;2.57;1.20;;;30.60;29.10;;;;;;5073110;28;20582;-76
2021/06/02 13:08:56;;;;;;;2.03;0.80;;;30.60;29.30;;;;;;5074835;28;20558;-76
2021/06/02 13:11:27;;;;;;;2.00;0.80;;;30.50;28.90;;;;;;5072778;28;20688;-75
2021/06/02 13:13:54;;;;;;;2.00;0.73;;;30.40;28.70;;;;;;5073954;28;20582;-77
2021/06/02 13:16:21;;;;;;;1.97;0.80;;;30.40;28.80;;;;;;5057714;28;20658;-76
2021/06/02 13:19:07;;;;;;;2.20;1.27;;;30.30;28.70;;;;;;5073310;28;20582;-76
2021/06/02 13:21:36;;;;;;;1.20;0.70;;;30.10;28.30;;;;;;5057891;28;20621;-77
2021/06/02 13:24:12;;;;;;;1.93;0.90;;;30.20;28.30;;;;;;5078408;28;20594;-77
2021/06/02 13:26:39;;;;;;;1.80;1.23;;;30.10;28.10;;;;;;5095420;28;20589;-77
2021/06/02 13:29:09;;;;;;;2.07;1.40;;;30.20;28.10;;;;;;5098975;28;20635;-78
2021/06/02 13:31:36;;;;;;;2.90;0.87;;;30.20;28.10;;;;;;5100297;28;21178;-77
2021/06/02 13:34:02;;;;;;;1.50;0.80;;;30.20;28.00;;;;;;5091748;28;20578;-77
2021/06/02 13:36:28;;;;;;;1.73;0.97;;;30.20;28.10;;;;;;5098113;28;20562;-77